sensor_id;sensor_type;location;lat;lon;timestamp;pressure;altitude;pressure_sealevel;temperature;humidity
9746;BME280;4912;50.836;12.958;2022-09-27T00:01:41;96026.38;;;14.08;65.13
9746;BME280;4912;50.836;12.958;2022-09-27T00:04:12;96016.56;;;14.07;64.92
9746;BME280;4912;50.836;12.958;2022-09-27T00:06:42;96018.16;;;14.03;64.89
9746;BME280;4912;50.836;12.958;2022-09-27T00:09:15;96000.19;;;14.04;65.02
9746;BME280;4912;50.836;12.958;2022-09-27T00:11:45;95994.75;;;14.11;64.60
9746;BME280;4912;50.836;12.958;2022-09-27T00:14:17;95987.91;;;14.12;64.74
9746;BME280;4912;50.836;12.958;2022-09-27T00:16:47;95981.47;;;14.17;64.47
9746;BME280;4912;50.836;12.958;2022-09-27T00:19:20;95978.38;;;14.21;64.44
9746;BME280;4912;50.836;12.958;2022-09-27T00:21:51;95981.03;;;14.26;64.30
9746;BME280;4912;50.836;12.958;2022-09-27T00:24:24;95975.47;;;14.26;63.79
9746;BME280;4912;50.836;12.958;2022-09-27T00:26:54;95972.69;;;14.26;63.85
9746;BME280;4912;50.836;12.958;2022-09-27T00:29:25;95972.91;;;14.28;63.65
9746;BME280;4912;50.836;12.958;2022-09-27T00:31:55;95972.16;;;14.28;63.85
9746;BME280;4912;50.836;12.958;2022-09-27T00:34:26;95970.13;;;14.28;63.61
9746;BME280;4912;50.836;12.958;2022-09-27T00:36:56;95972.56;;;14.32;63.52
9746;BME280;4912;50.836;12.958;2022-09-27T00:39:29;95964.44;;;14.34;63.31
9746;BME280;4912;50.836;12.958;2022-09-27T00:42:00;95965.63;;;14.39;63.19
9746;BME280;4912;50.836;12.958;2022-09-27T00:47:39;95960.16;;;14.20;63.72
9746;BME280;4912;50.836;12.958;2022-09-27T00:50:23;95956.66;;;14.19;63.86
9746;BME280;4912;50.836;12.958;2022-09-27T00:53:14;95941.25;;;14.18;64.05
9746;BME280;4912;50.836;12.958;2022-09-27T00:55:52;95936.53;;;14.26;63.78
9746;BME280;4912;50.836;12.958;2022-09-27T00:58:28;95923.38;;;14.27;63.60
9746;BME280;4912;50.836;12.958;2022-09-27T01:01:02;95930.78;;;14.24;63.47
9746;BME280;4912;50.836;12.958;2022-09-27T01:03:39;95924.56;;;14.18;63.86
9746;BME280;4912;50.836;12.958;2022-09-27T01:06:13;95923.72;;;14.23;63.78
9746;BME280;4912;50.836;12.958;2022-09-27T01:08:45;95911.94;;;14.30;64.07
9746;BME280;4912;50.836;12.958;2022-09-27T01:11:27;95913.84;;;14.35;63.87
9746;BME280;4912;50.836;12.958;2022-09-27T01:14:28;95913.63;;;14.33;63.91
9746;BME280;4912;50.836;12.958;2022-09-27T01:17:08;95893.00;;;14.29;64.05
9746;BME280;4912;50.836;12.958;2022-09-27T01:23:24;95898.69;;;14.23;64.38
9746;BME280;4912;50.836;12.958;2022-09-27T01:26:12;95894.16;;;14.20;64.20
9746;BME280;4912;50.836;12.958;2022-09-27T01:28:56;95893.75;;;14.16;64.82
9746;BME280;4912;50.836;12.958;2022-09-27T01:31:40;95895.03;;;14.15;64.79
9746;BME280;4912;50.836;12.958;2022-09-27T01:34:15;95885.63;;;14.18;64.62
9746;BME280;4912;50.836;12.958;2022-09-27T01:36:54;95880.94;;;14.13;64.85
9746;BME280;4912;50.836;12.958;2022-09-27T01:39:35;95874.28;;;14.16;64.57
9746;BME280;4912;50.836;12.958;2022-09-27T01:42:34;95868.81;;;14.24;64.72
9746;BME280;4912;50.836;12.958;2022-09-27T01:45:14;95863.78;;;14.22;64.93
9746;BME280;4912;50.836;12.958;2022-09-27T01:48:03;95853.00;;;14.19;64.79
9746;BME280;4912;50.836;12.958;2022-09-27T01:50:58;95854.41;;;14.12;65.57
9746;BME280;4912;50.836;12.958;2022-09-27T01:53:35;95855.91;;;14.13;65.36
9746;BME280;4912;50.836;12.958;2022-09-27T01:56:43;95846.03;;;14.25;65.04
9746;BME280;4912;50.836;12.958;2022-09-27T01:59:25;95841.06;;;14.31;65.30
9746;BME280;4912;50.836;12.958;2022-09-27T02:02:23;95835.72;;;14.33;64.96
9746;BME280;4912;50.836;12.958;2022-09-27T02:05:34;95831.25;;;14.30;65.22
9746;BME280;4912;50.836;12.958;2022-09-27T02:08:44;95827.16;;;14.31;65.04
9746;BME280;4912;50.836;12.958;2022-09-27T02:11:40;95820.19;;;14.17;65.05
9746;BME280;4912;50.836;12.958;2022-09-27T02:14:17;95819.28;;;14.22;65.30
9746;BME280;4912;50.836;12.958;2022-09-27T02:16:59;95813.34;;;14.18;65.45
9746;BME280;4912;50.836;12.958;2022-09-27T02:19:42;95819.97;;;14.15;65.29
9746;BME280;4912;50.836;12.958;2022-09-27T02:22:31;95819.16;;;14.07;65.89
9746;BME280;4912;50.836;12.958;2022-09-27T02:25:12;95813.25;;;14.11;65.77
9746;BME280;4912;50.836;12.958;2022-09-27T02:27:51;95813.59;;;14.07;65.97
9746;BME280;4912;50.836;12.958;2022-09-27T02:30:30;95819.44;;;14.17;65.84
9746;BME280;4912;50.836;12.958;2022-09-27T02:33:14;95815.28;;;14.10;65.70
9746;BME280;4912;50.836;12.958;2022-09-27T02:35:44;95801.25;;;14.16;65.85
9746;BME280;4912;50.836;12.958;2022-09-27T02:38:18;95811.56;;;14.28;65.41
9746;BME280;4912;50.836;12.958;2022-09-27T02:40:49;95809.53;;;14.29;65.71
9746;BME280;4912;50.836;12.958;2022-09-27T02:43:22;95803.53;;;14.38;65.35
9746;BME280;4912;50.836;12.958;2022-09-27T02:46:09;95798.63;;;14.31;65.73
9746;BME280;4912;50.836;12.958;2022-09-27T02:48:57;95795.22;;;14.25;66.21
9746;BME280;4912;50.836;12.958;2022-09-27T02:51:47;95801.03;;;14.14;67.01
9746;BME280;4912;50.836;12.958;2022-09-27T02:54:34;95790.78;;;14.09;67.95
9746;BME280;4912;50.836;12.958;2022-09-27T02:57:55;95793.50;;;14.01;68.41
9746;BME280;4912;50.836;12.958;2022-09-27T03:00:56;95789.63;;;14.04;68.47
9746;BME280;4912;50.836;12.958;2022-09-27T03:03:56;95778.19;;;14.08;68.33
9746;BME280;4912;50.836;12.958;2022-09-27T03:06:31;95784.94;;;13.99;68.59
9746;BME280;4912;50.836;12.958;2022-09-27T03:09:02;95791.13;;;14.05;68.63
9746;BME280;4912;50.836;12.958;2022-09-27T03:11:35;95783.84;;;14.02;68.60
9746;BME280;4912;50.836;12.958;2022-09-27T03:14:05;95786.44;;;14.00;68.94
9746;BME280;4912;50.836;12.958;2022-09-27T03:16:43;95781.81;;;14.03;69.67
9746;BME280;4912;50.836;12.958;2022-09-27T03:19:33;95786.44;;;14.00;69.50
9746;BME280;4912;50.836;12.958;2022-09-27T03:22:22;95786.63;;;14.02;69.83
9746;BME280;4912;50.836;12.958;2022-09-27T03:24:53;95781.53;;;13.93;70.68
9746;BME280;4912;50.836;12.958;2022-09-27T03:27:26;95778.97;;;13.95;70.60
9746;BME280;4912;50.836;12.958;2022-09-27T03:29:56;95771.50;;;13.90;70.89
9746;BME280;4912;50.836;12.958;2022-09-27T03:32:26;95773.06;;;13.99;71.21
9746;BME280;4912;50.836;12.958;2022-09-27T03:35:36;95763.84;;;14.04;71.54
9746;BME280;4912;50.836;12.958;2022-09-27T03:38:08;95762.69;;;13.99;71.70
9746;BME280;4912;50.836;12.958;2022-09-27T03:40:39;95774.56;;;14.00;71.90
9746;BME280;4912;50.836;12.958;2022-09-27T03:43:13;95761.88;;;13.91;72.66
9746;BME280;4912;50.836;12.958;2022-09-27T03:45:45;95770.31;;;13.85;73.13
9746;BME280;4912;50.836;12.958;2022-09-27T03:48:16;95762.56;;;13.84;72.79
9746;BME280;4912;50.836;12.958;2022-09-27T03:50:53;95766.41;;;13.81;73.73
9746;BME280;4912;50.836;12.958;2022-09-27T03:53:24;95758.22;;;13.62;74.57
9746;BME280;4912;50.836;12.958;2022-09-27T03:55:54;95775.66;;;13.49;75.76
9746;BME280;4912;50.836;12.958;2022-09-27T03:58:27;95772.13;;;13.49;77.16
9746;BME280;4912;50.836;12.958;2022-09-27T04:00:57;95762.13;;;13.20;79.30
9746;BME280;4912;50.836;12.958;2022-09-27T04:03:29;95760.94;;;13.15;80.98
9746;BME280;4912;50.836;12.958;2022-09-27T04:06:18;95753.59;;;13.18;81.82
9746;BME280;4912;50.836;12.958;2022-09-27T04:08:49;95751.22;;;13.22;83.17
9746;BME280;4912;50.836;12.958;2022-09-27T04:11:22;95748.22;;;13.33;83.18
9746;BME280;4912;50.836;12.958;2022-09-27T04:13:55;95746.31;;;13.28;84.54
9746;BME280;4912;50.836;12.958;2022-09-27T04:16:26;95748.66;;;13.37;85.43
9746;BME280;4912;50.836;12.958;2022-09-27T04:19:19;95745.13;;;13.36;85.08
9746;BME280;4912;50.836;12.958;2022-09-27T04:22:03;95746.72;;;13.32;87.25
9746;BME280;4912;50.836;12.958;2022-09-27T04:24:34;95751.63;;;13.39;87.84
9746;BME280;4912;50.836;12.958;2022-09-27T04:27:30;95743.81;;;13.50;87.78
9746;BME280;4912;50.836;12.958;2022-09-27T04:30:04;95740.66;;;13.67;87.15
9746;BME280;4912;50.836;12.958;2022-09-27T04:32:54;95741.72;;;13.77;87.20
9746;BME280;4912;50.836;12.958;2022-09-27T04:36:03;95736.41;;;13.66;88.08
9746;BME280;4912;50.836;12.958;2022-09-27T04:38:59;95742.63;;;13.59;88.09
9746;BME280;4912;50.836;12.958;2022-09-27T04:41:35;95737.38;;;13.56;88.93
9746;BME280;4912;50.836;12.958;2022-09-27T04:44:06;95731.41;;;13.51;89.57
9746;BME280;4912;50.836;12.958;2022-09-27T04:46:42;95738.06;;;13.48;89.87
9746;BME280;4912;50.836;12.958;2022-09-27T04:49:13;95738.59;;;13.47;91.49
9746;BME280;4912;50.836;12.958;2022-09-27T04:51:44;95744.28;;;13.41;92.13
9746;BME280;4912;50.836;12.958;2022-09-27T04:54:14;95739.47;;;13.29;93.46
9746;BME280;4912;50.836;12.958;2022-09-27T04:56:57;95744.06;;;13.26;94.44
9746;BME280;4912;50.836;12.958;2022-09-27T04:59:27;95743.75;;;13.30;94.98
9746;BME280;4912;50.836;12.958;2022-09-27T05:02:00;95736.38;;;13.32;95.33
9746;BME280;4912;50.836;12.958;2022-09-27T05:04:51;95736.97;;;13.51;94.26
9746;BME280;4912;50.836;12.958;2022-09-27T05:07:22;95745.28;;;13.65;94.16
9746;BME280;4912;50.836;12.958;2022-09-27T05:09:57;95748.09;;;13.51;94.17
9746;BME280;4912;50.836;12.958;2022-09-27T05:12:28;95750.88;;;13.51;94.56
9746;BME280;4912;50.836;12.958;2022-09-27T05:15:01;95756.13;;;13.42;95.38
9746;BME280;4912;50.836;12.958;2022-09-27T05:18:07;95743.00;;;13.29;96.30
9746;BME280;4912;50.836;12.958;2022-09-27T05:21:13;95747.69;;;13.21;97.01
9746;BME280;4912;50.836;12.958;2022-09-27T05:23:45;95743.44;;;13.20;96.94
9746;BME280;4912;50.836;12.958;2022-09-27T05:26:16;95742.78;;;13.14;96.94
9746;BME280;4912;50.836;12.958;2022-09-27T05:28:46;95740.22;;;13.16;97.48
9746;BME280;4912;50.836;12.958;2022-09-27T05:31:17;95742.16;;;13.21;97.40
9746;BME280;4912;50.836;12.958;2022-09-27T05:33:51;95738.19;;;13.30;97.31
9746;BME280;4912;50.836;12.958;2022-09-27T05:36:32;95734.25;;;13.25;96.51
9746;BME280;4912;50.836;12.958;2022-09-27T05:39:03;95737.88;;;13.20;96.62
9746;BME280;4912;50.836;12.958;2022-09-27T05:41:34;95736.50;;;13.13;96.63
9746;BME280;4912;50.836;12.958;2022-09-27T05:44:06;95718.03;;;13.16;96.05
9746;BME280;4912;50.836;12.958;2022-09-27T05:46:42;95723.47;;;13.22;96.69
9746;BME280;4912;50.836;12.958;2022-09-27T05:49:15;95729.13;;;13.16;95.66
9746;BME280;4912;50.836;12.958;2022-09-27T05:51:46;95725.81;;;13.18;95.62
9746;BME280;4912;50.836;12.958;2022-09-27T05:54:16;95725.50;;;13.21;95.99
9746;BME280;4912;50.836;12.958;2022-09-27T05:56:46;95734.44;;;13.27;95.28
9746;BME280;4912;50.836;12.958;2022-09-27T05:59:35;95728.72;;;13.25;94.89
9746;BME280;4912;50.836;12.958;2022-09-27T06:02:19;95729.34;;;13.18;94.99
9746;BME280;4912;50.836;12.958;2022-09-27T06:05:10;95733.00;;;13.13;95.84
9746;BME280;4912;50.836;12.958;2022-09-27T06:07:40;95731.91;;;13.16;95.68
9746;BME280;4912;50.836;12.958;2022-09-27T06:10:34;95733.72;;;13.13;96.31
9746;BME280;4912;50.836;12.958;2022-09-27T06:13:08;95737.22;;;13.27;95.65
9746;BME280;4912;50.836;12.958;2022-09-27T06:15:42;95731.25;;;13.10;95.94
9746;BME280;4912;50.836;12.958;2022-09-27T06:18:14;95742.44;;;13.04;97.33
9746;BME280;4912;50.836;12.958;2022-09-27T06:20:50;95727.84;;;13.17;95.59
9746;BME280;4912;50.836;12.958;2022-09-27T06:23:22;95723.91;;;13.13;94.85
9746;BME280;4912;50.836;12.958;2022-09-27T06:25:54;95721.63;;;13.11;96.06
9746;BME280;4912;50.836;12.958;2022-09-27T06:28:44;95726.69;;;13.13;95.57
9746;BME280;4912;50.836;12.958;2022-09-27T06:31:14;95727.59;;;13.02;95.96
9746;BME280;4912;50.836;12.958;2022-09-27T06:34:00;95734.25;;;12.99;95.62
9746;BME280;4912;50.836;12.958;2022-09-27T06:36:33;95732.53;;;12.96;93.85
9746;BME280;4912;50.836;12.958;2022-09-27T06:39:04;95728.34;;;13.02;94.73
9746;BME280;4912;50.836;12.958;2022-09-27T06:41:53;95725.19;;;13.25;93.60
9746;BME280;4912;50.836;12.958;2022-09-27T06:44:48;95734.88;;;13.31;91.66
9746;BME280;4912;50.836;12.958;2022-09-27T06:47:24;95735.09;;;13.20;92.07
9746;BME280;4912;50.836;12.958;2022-09-27T06:50:33;95732.75;;;13.24;92.22
9746;BME280;4912;50.836;12.958;2022-09-27T06:53:08;95736.38;;;13.06;91.94
9746;BME280;4912;50.836;12.958;2022-09-27T06:55:40;95736.03;;;13.09;91.71
9746;BME280;4912;50.836;12.958;2022-09-27T06:58:11;95748.34;;;13.01;91.39
9746;BME280;4912;50.836;12.958;2022-09-27T07:01:27;95748.97;;;12.81;92.95
9746;BME280;4912;50.836;12.958;2022-09-27T07:04:18;95745.13;;;12.97;91.81
9746;BME280;4912;50.836;12.958;2022-09-27T07:07:01;95749.63;;;13.00;91.83
9746;BME280;4912;50.836;12.958;2022-09-27T07:09:41;95751.75;;;12.94;91.16
9746;BME280;4912;50.836;12.958;2022-09-27T07:12:11;95753.03;;;12.93;90.71
9746;BME280;4912;50.836;12.958;2022-09-27T07:14:42;95758.06;;;12.94;91.07
9746;BME280;4912;50.836;12.958;2022-09-27T07:17:16;95765.09;;;12.95;91.09
9746;BME280;4912;50.836;12.958;2022-09-27T07:19:48;95762.75;;;12.99;89.80
9746;BME280;4912;50.836;12.958;2022-09-27T07:22:19;95759.00;;;13.10;90.32
9746;BME280;4912;50.836;12.958;2022-09-27T07:24:58;95765.53;;;13.26;88.19
9746;BME280;4912;50.836;12.958;2022-09-27T07:27:29;95761.59;;;13.21;88.01
9746;BME280;4912;50.836;12.958;2022-09-27T07:30:07;95763.13;;;13.56;87.55
9746;BME280;4912;50.836;12.958;2022-09-27T07:32:39;95751.41;;;14.39;83.25
9746;BME280;4912;50.836;12.958;2022-09-27T07:35:10;95755.03;;;15.32;75.80
9746;BME280;4912;50.836;12.958;2022-09-27T07:37:43;95765.03;;;15.63;73.20
9746;BME280;4912;50.836;12.958;2022-09-27T07:40:16;95770.81;;;15.65;72.92
9746;BME280;4912;50.836;12.958;2022-09-27T07:42:46;95772.47;;;15.61;73.35
9746;BME280;4912;50.836;12.958;2022-09-27T07:45:17;95772.22;;;15.51;73.29
9746;BME280;4912;50.836;12.958;2022-09-27T07:48:08;95784.09;;;15.15;73.60
9746;BME280;4912;50.836;12.958;2022-09-27T07:51:16;95784.91;;;14.95;76.02
9746;BME280;4912;50.836;12.958;2022-09-27T07:53:50;95786.09;;;14.58;77.76
9746;BME280;4912;50.836;12.958;2022-09-27T07:56:43;95785.97;;;14.09;79.19
9746;BME280;4912;50.836;12.958;2022-09-27T07:59:16;95785.22;;;14.09;80.63
9746;BME280;4912;50.836;12.958;2022-09-27T08:01:46;95794.47;;;13.90;81.60
9746;BME280;4912;50.836;12.958;2022-09-27T08:04:17;95793.16;;;13.71;81.59
9746;BME280;4912;50.836;12.958;2022-09-27T08:06:47;95795.31;;;13.65;83.86
9746;BME280;4912;50.836;12.958;2022-09-27T08:09:18;95795.91;;;13.84;85.03
9746;BME280;4912;50.836;12.958;2022-09-27T08:11:51;95810.13;;;13.67;84.57
9746;BME280;4912;50.836;12.958;2022-09-27T08:14:24;95801.63;;;13.52;85.18
9746;BME280;4912;50.836;12.958;2022-09-27T08:16:54;95799.56;;;13.66;84.21
9746;BME280;4912;50.836;12.958;2022-09-27T08:19:27;95788.41;;;13.79;83.68
9746;BME280;4912;50.836;12.958;2022-09-27T08:22:20;95794.44;;;14.38;80.00
9746;BME280;4912;50.836;12.958;2022-09-27T08:24:58;95797.25;;;14.87;77.50
9746;BME280;4912;50.836;12.958;2022-09-27T08:28:03;95790.78;;;14.63;76.20
9746;BME280;4912;50.836;12.958;2022-09-27T08:30:39;95797.69;;;14.70;75.89
9746;BME280;4912;50.836;12.958;2022-09-27T08:33:09;95789.91;;;15.53;71.55
9746;BME280;4912;50.836;12.958;2022-09-27T08:35:40;95788.84;;;16.23;68.42
9746;BME280;4912;50.836;12.958;2022-09-27T08:38:10;95792.50;;;15.95;68.94
9746;BME280;4912;50.836;12.958;2022-09-27T08:40:49;95793.16;;;15.44;72.58
9746;BME280;4912;50.836;12.958;2022-09-27T08:43:32;95802.00;;;15.28;73.93
9746;BME280;4912;50.836;12.958;2022-09-27T08:46:12;95803.31;;;15.55;72.75
9746;BME280;4912;50.836;12.958;2022-09-27T08:48:50;95801.53;;;15.44;71.11
9746;BME280;4912;50.836;12.958;2022-09-27T08:51:27;95812.88;;;15.46;71.03
9746;BME280;4912;50.836;12.958;2022-09-27T08:54:01;95813.28;;;15.50;71.54
9746;BME280;4912;50.836;12.958;2022-09-27T08:56:36;95816.59;;;14.92;73.85
9746;BME280;4912;50.836;12.958;2022-09-27T08:59:12;95816.91;;;14.40;77.69
9746;BME280;4912;50.836;12.958;2022-09-27T09:01:47;95832.25;;;14.20;77.95
9746;BME280;4912;50.836;12.958;2022-09-27T09:04:33;95831.16;;;13.89;80.37
9746;BME280;4912;50.836;12.958;2022-09-27T09:07:11;95837.69;;;13.78;80.24
9746;BME280;4912;50.836;12.958;2022-09-27T09:09:52;95843.88;;;13.84;79.20
9746;BME280;4912;50.836;12.958;2022-09-27T09:12:46;95839.81;;;13.85;81.96
9746;BME280;4912;50.836;12.958;2022-09-27T09:15:35;95836.22;;;13.77;81.35
9746;BME280;4912;50.836;12.958;2022-09-27T09:18:51;95838.22;;;13.90;80.30
9746;BME280;4912;50.836;12.958;2022-09-27T09:21:48;95842.56;;;13.99;81.58
9746;BME280;4912;50.836;12.958;2022-09-27T09:24:39;95838.16;;;14.03;79.72
9746;BME280;4912;50.836;12.958;2022-09-27T09:27:21;95846.09;;;13.99;81.35
9746;BME280;4912;50.836;12.958;2022-09-27T09:30:03;95844.44;;;14.17;82.24
9746;BME280;4912;50.836;12.958;2022-09-27T09:33:13;95859.47;;;14.34;81.01
9746;BME280;4912;50.836;12.958;2022-09-27T09:35:51;95853.81;;;14.27;79.56
9746;BME280;4912;50.836;12.958;2022-09-27T09:38:34;95847.34;;;14.11;81.49
9746;BME280;4912;50.836;12.958;2022-09-27T09:41:14;95849.78;;;13.68;84.96
9746;BME280;4912;50.836;12.958;2022-09-27T09:43:49;95864.00;;;13.51;86.37
9746;BME280;4912;50.836;12.958;2022-09-27T09:46:24;95876.75;;;13.60;82.85
9746;BME280;4912;50.836;12.958;2022-09-27T09:49:14;95871.41;;;13.48;82.05
9746;BME280;4912;50.836;12.958;2022-09-27T09:51:48;95875.78;;;13.57;83.02
9746;BME280;4912;50.836;12.958;2022-09-27T09:54:27;95875.31;;;13.27;84.74
9746;BME280;4912;50.836;12.958;2022-09-27T09:57:03;95878.44;;;12.91;87.17
9746;BME280;4912;50.836;12.958;2022-09-27T09:59:40;95888.97;;;13.11;89.29
9746;BME280;4912;50.836;12.958;2022-09-27T10:02:22;95886.47;;;13.08;89.89
9746;BME280;4912;50.836;12.958;2022-09-27T10:05:06;95885.41;;;12.98;90.17
9746;BME280;4912;50.836;12.958;2022-09-27T10:07:39;95893.13;;;12.73;88.26
9746;BME280;4912;50.836;12.958;2022-09-27T10:10:13;95899.59;;;12.62;90.58
9746;BME280;4912;50.836;12.958;2022-09-27T10:12:54;95896.94;;;12.38;90.95
9746;BME280;4912;50.836;12.958;2022-09-27T10:15:30;95898.28;;;12.31;93.21
9746;BME280;4912;50.836;12.958;2022-09-27T10:18:01;95903.97;;;12.39;95.25
9746;BME280;4912;50.836;12.958;2022-09-27T10:20:36;95906.53;;;12.37;94.77
9746;BME280;4912;50.836;12.958;2022-09-27T10:23:13;95901.72;;;12.38;95.26
9746;BME280;4912;50.836;12.958;2022-09-27T10:26:05;95913.31;;;12.55;94.20
9746;BME280;4912;50.836;12.958;2022-09-27T10:28:44;95920.09;;;12.59;93.69
9746;BME280;4912;50.836;12.958;2022-09-27T10:31:22;95907.72;;;12.60;93.28
9746;BME280;4912;50.836;12.958;2022-09-27T10:34:04;95906.97;;;12.60;93.84
9746;BME280;4912;50.836;12.958;2022-09-27T10:36:44;95916.31;;;12.76;91.88
9746;BME280;4912;50.836;12.958;2022-09-27T10:39:21;95904.44;;;13.07;91.30
9746;BME280;4912;50.836;12.958;2022-09-27T10:41:55;95917.13;;;13.34;88.22
9746;BME280;4912;50.836;12.958;2022-09-27T10:44:34;95918.06;;;13.24;88.38
9746;BME280;4912;50.836;12.958;2022-09-27T10:47:39;95919.16;;;13.47;87.15
9746;BME280;4912;50.836;12.958;2022-09-27T10:50:24;95908.59;;;13.59;86.11
9746;BME280;4912;50.836;12.958;2022-09-27T10:53:28;95909.66;;;13.82;86.47
9746;BME280;4912;50.836;12.958;2022-09-27T10:56:04;95913.47;;;13.92;85.38
9746;BME280;4912;50.836;12.958;2022-09-27T10:58:37;95912.13;;;13.72;84.18
9746;BME280;4912;50.836;12.958;2022-09-27T11:01:12;95919.34;;;13.49;87.24
9746;BME280;4912;50.836;12.958;2022-09-27T11:04:05;95923.91;;;13.20;84.69
9746;BME280;4912;50.836;12.958;2022-09-27T11:06:36;95926.09;;;13.08;87.48
9746;BME280;4912;50.836;12.958;2022-09-27T11:09:17;95931.69;;;12.77;90.97
9746;BME280;4912;50.836;12.958;2022-09-27T11:12:05;95922.22;;;12.66;95.87
9746;BME280;4912;50.836;12.958;2022-09-27T11:14:40;95930.66;;;12.93;95.71
9746;BME280;4912;50.836;12.958;2022-09-27T11:17:16;95936.09;;;12.66;94.71
9746;BME280;4912;50.836;12.958;2022-09-27T11:20:22;95943.16;;;12.67;95.58
9746;BME280;4912;50.836;12.958;2022-09-27T11:23:09;95943.91;;;12.49;94.63
9746;BME280;4912;50.836;12.958;2022-09-27T11:26:02;95942.44;;;12.48;94.43
9746;BME280;4912;50.836;12.958;2022-09-27T11:28:50;95950.38;;;12.57;93.55
9746;BME280;4912;50.836;12.958;2022-09-27T11:32:02;95960.44;;;12.60;92.84
9746;BME280;4912;50.836;12.958;2022-09-27T11:34:52;95952.41;;;12.38;91.83
9746;BME280;4912;50.836;12.958;2022-09-27T11:37:37;95944.75;;;12.44;92.68
9746;BME280;4912;50.836;12.958;2022-09-27T11:40:21;95949.09;;;12.40;91.80
9746;BME280;4912;50.836;12.958;2022-09-27T11:43:14;95956.53;;;12.50;92.24
9746;BME280;4912;50.836;12.958;2022-09-27T11:46:04;95957.66;;;12.60;91.97
9746;BME280;4912;50.836;12.958;2022-09-27T11:49:20;95953.88;;;12.77;92.10
9746;BME280;4912;50.836;12.958;2022-09-27T11:55:19;95953.81;;;12.63;91.95
9746;BME280;4912;50.836;12.958;2022-09-27T11:58:07;95960.56;;;13.19;91.34
9746;BME280;4912;50.836;12.958;2022-09-27T12:00:57;95952.53;;;13.15;87.83
9746;BME280;4912;50.836;12.958;2022-09-27T12:03:49;95954.06;;;13.29;86.61
9746;BME280;4912;50.836;12.958;2022-09-27T12:06:39;95957.81;;;13.45;84.90
9746;BME280;4912;50.836;12.958;2022-09-27T12:09:18;95961.28;;;13.64;83.96
9746;BME280;4912;50.836;12.958;2022-09-27T12:11:53;95962.00;;;13.51;84.28
9746;BME280;4912;50.836;12.958;2022-09-27T12:14:34;95956.13;;;13.55;84.57
9746;BME280;4912;50.836;12.958;2022-09-27T12:17:11;95966.41;;;13.73;84.31
9746;BME280;4912;50.836;12.958;2022-09-27T12:19:48;95957.31;;;13.99;84.24
9746;BME280;4912;50.836;12.958;2022-09-27T12:22:33;95963.53;;;14.05;82.66
9746;BME280;4912;50.836;12.958;2022-09-27T12:25:36;95961.78;;;14.75;78.69
9746;BME280;4912;50.836;12.958;2022-09-27T12:28:18;95961.66;;;14.81;78.63
9746;BME280;4912;50.836;12.958;2022-09-27T12:31:02;95959.09;;;14.83;77.22
9746;BME280;4912;50.836;12.958;2022-09-27T12:34:01;95965.16;;;15.15;73.67
9746;BME280;4912;50.836;12.958;2022-09-27T12:36:36;95955.16;;;14.99;75.37
9746;BME280;4912;50.836;12.958;2022-09-27T12:39:14;95955.75;;;15.47;74.84
9746;BME280;4912;50.836;12.958;2022-09-27T12:41:54;95955.34;;;16.64;67.80
9746;BME280;4912;50.836;12.958;2022-09-27T12:44:41;95949.69;;;17.68;60.17
9746;BME280;4912;50.836;12.958;2022-09-27T12:47:35;95946.63;;;18.19;57.28
9746;BME280;4912;50.836;12.958;2022-09-27T12:50:23;95952.09;;;17.11;61.26
9746;BME280;4912;50.836;12.958;2022-09-27T12:53:03;95948.34;;;16.42;64.15
9746;BME280;4912;50.836;12.958;2022-09-27T12:55:54;95941.25;;;15.97;66.43
9746;BME280;4912;50.836;12.958;2022-09-27T12:58:53;95934.50;;;15.15;65.93
9746;BME280;4912;50.836;12.958;2022-09-27T13:01:47;95948.84;;;14.78;69.47
9746;BME280;4912;50.836;12.958;2022-09-27T13:04:41;95959.59;;;14.95;70.10
9746;BME280;4912;50.836;12.958;2022-09-27T13:07:29;95953.31;;;14.81;67.91
9746;BME280;4912;50.836;12.958;2022-09-27T13:10:29;95954.84;;;14.69;67.65
9746;BME280;4912;50.836;12.958;2022-09-27T13:13:21;95961.59;;;14.13;71.06
9746;BME280;4912;50.836;12.958;2022-09-27T13:15:56;95962.88;;;13.99;73.65
9746;BME280;4912;50.836;12.958;2022-09-27T13:18:58;95973.34;;;13.67;76.27
9746;BME280;4912;50.836;12.958;2022-09-27T13:21:57;95976.19;;;13.35;77.93
9746;BME280;4912;50.836;12.958;2022-09-27T13:24:57;95968.81;;;13.24;79.96
9746;BME280;4912;50.836;12.958;2022-09-27T13:27:46;95975.59;;;12.91;79.26
9746;BME280;4912;50.836;12.958;2022-09-27T13:30:45;95972.81;;;12.91;80.46
9746;BME280;4912;50.836;12.958;2022-09-27T13:33:38;95971.69;;;13.00;79.91
9746;BME280;4912;50.836;12.958;2022-09-27T13:36:29;95970.31;;;13.25;78.24
9746;BME280;4912;50.836;12.958;2022-09-27T13:39:22;95977.31;;;13.58;76.30
9746;BME280;4912;50.836;12.958;2022-09-27T13:42:21;95968.44;;;13.99;74.99
9746;BME280;4912;50.836;12.958;2022-09-27T13:45:16;95975.88;;;14.57;72.63
9746;BME280;4912;50.836;12.958;2022-09-27T13:47:51;95973.03;;;15.04;71.23
9746;BME280;4912;50.836;12.958;2022-09-27T13:50:37;95970.72;;;15.15;69.85
9746;BME280;4912;50.836;12.958;2022-09-27T13:53:23;95978.97;;;14.66;70.01
9746;BME280;4912;50.836;12.958;2022-09-27T13:56:02;95981.84;;;14.61;69.37
9746;BME280;4912;50.836;12.958;2022-09-27T13:58:48;95979.66;;;14.46;71.40
9746;BME280;4912;50.836;12.958;2022-09-27T14:01:41;95982.53;;;14.54;71.86
9746;BME280;4912;50.836;12.958;2022-09-27T14:04:19;95985.63;;;14.50;72.77
9746;BME280;4912;50.836;12.958;2022-09-27T14:06:55;95992.50;;;14.10;74.47
9746;BME280;4912;50.836;12.958;2022-09-27T14:09:30;95994.94;;;13.74;76.49
9746;BME280;4912;50.836;12.958;2022-09-27T14:12:28;95995.78;;;13.69;77.78
9746;BME280;4912;50.836;12.958;2022-09-27T14:15:06;95999.19;;;13.48;78.39
9746;BME280;4912;50.836;12.958;2022-09-27T14:17:41;95996.38;;;13.35;78.21
9746;BME280;4912;50.836;12.958;2022-09-27T14:20:32;95996.25;;;13.28;76.95
9746;BME280;4912;50.836;12.958;2022-09-27T14:23:14;95999.78;;;14.00;73.76
9746;BME280;4912;50.836;12.958;2022-09-27T14:25:49;96001.66;;;14.91;67.06
9746;BME280;4912;50.836;12.958;2022-09-27T14:28:26;96001.50;;;15.51;64.45
9746;BME280;4912;50.836;12.958;2022-09-27T14:31:14;96008.59;;;14.77;66.32
9746;BME280;4912;50.836;12.958;2022-09-27T14:34:06;96005.44;;;14.20;68.53
9746;BME280;4912;50.836;12.958;2022-09-27T14:36:42;96010.88;;;13.86;70.38